Time;durP1;ratioP1;P1;durP2;ratioP2;P2;SDS_P1;SDS_P2;PMS_P1;PMS_P2;Temp;Humidity;BMP_temperature;BMP_pressure;BME280_temperature;BME280_humidity;BME280_pressure;Samples;Min_cycle;Max_cycle;Signal;HPM_P1;HPM_P2
2022/09/27 00:01:02;;;;;;;15.13;2.95;;;11.20;99.90;;;;;;5031330;28;20496;-72
2022/09/27 00:03:29;;;;;;;13.05;3.22;;;11.30;99.90;;;;;;5032483;28;20135;-72
2022/09/27 00:06:07;;;;;;;11.93;3.28;;;11.20;99.90;;;;;;5032237;28;20505;-72
2022/09/27 00:08:34;;;;;;;16.90;3.03;;;11.20;99.90;;;;;;5032739;28;20055;-72
2022/09/27 00:11:02;;;;;;;9.82;2.70;;;11.20;99.90;;;;;;5034557;28;20029;-72
2022/09/27 00:13:28;;;;;;;12.55;2.08;;;11.30;99.90;;;;;;5036146;28;20068;-72
2022/09/27 00:16:05;;;;;;;7.25;1.60;;;11.30;99.90;;;;;;5036150;28;20033;-71
2022/09/27 00:18:32;;;;;;;6.85;1.70;;;11.20;99.90;;;;;;5036250;28;20497;-72
2022/09/27 00:21:10;;;;;;;11.82;1.42;;;11.30;99.90;;;;;;5035723;28;20028;-72
2022/09/27 00:23:36;;;;;;;8.13;1.95;;;11.30;99.90;;;;;;5036125;28;20108;-72
2022/09/27 00:26:02;;;;;;;8.95;2.53;;;11.30;99.90;;;;;;5034675;28;20037;-71
2022/09/27 00:28:29;;;;;;;7.15;1.52;;;11.20;99.90;;;;;;5034461;28;20481;-72
2022/09/27 00:30:56;;;;;;;9.40;1.38;;;11.20;99.90;;;;;;5034640;28;20029;-71
2022/09/27 00:33:22;;;;;;;10.73;1.50;;;11.10;99.90;;;;;;5018012;28;20033;-72
2022/09/27 00:35:48;;;;;;;10.82;1.90;;;11.10;99.90;;;;;;5035688;28;20018;-71
2022/09/27 00:38:14;;;;;;;9.02;1.80;;;11.20;99.90;;;;;;5034205;28;20103;-72
2022/09/27 00:40:42;;;;;;;8.35;1.65;;;11.20;99.90;;;;;;5034793;28;20041;-72
2022/09/27 00:43:22;;;;;;;7.85;1.23;;;11.50;99.90;;;;;;5034221;28;20371;-72
2022/09/27 00:45:59;;;;;;;5.72;1.42;;;11.90;99.90;;;;;;5035661;28;20517;-72
2022/09/27 00:48:28;;;;;;;9.48;1.55;;;11.60;99.90;;;;;;5035469;28;20057;-72
2022/09/27 00:50:59;;;;;;;9.27;2.22;;;11.70;99.90;;;;;;5035175;28;20030;-72
2022/09/27 00:53:41;;;;;;;8.88;1.30;;;11.50;99.90;;;;;;5035307;28;20501;-72
2022/09/27 00:56:11;;;;;;;5.95;1.60;;;11.30;99.90;;;;;;5034158;28;20128;-72
2022/09/27 00:58:43;;;;;;;3.92;1.20;;;11.30;99.90;;;;;;5035241;28;20021;-71
2022/09/27 01:01:10;;;;;;;9.48;1.33;;;11.30;99.90;;;;;;5033968;28;20041;-72
2022/09/27 01:03:59;;;;;;;4.72;1.27;;;11.20;99.90;;;;;;5033975;28;20056;-72
2022/09/27 01:06:25;;;;;;;9.18;0.95;;;11.00;99.90;;;;;;5034554;28;20042;-72
2022/09/27 01:08:51;;;;;;;3.30;0.70;;;11.10;99.90;;;;;;5033935;28;20382;-71
2022/09/27 01:11:36;;;;;;;5.25;1.00;;;10.90;99.90;;;;;;5033944;28;20125;-72
2022/09/27 01:14:39;;;;;;;7.18;1.65;;;10.80;99.90;;;;;;5017634;28;20033;-72
2022/09/27 01:17:08;;;;;;;3.25;0.75;;;10.70;99.90;;;;;;5013868;28;20021;-72
2022/09/27 01:19:46;;;;;;;5.28;0.90;;;10.80;99.90;;;;;;5014855;28;20529;-72
2022/09/27 01:22:32;;;;;;;7.35;0.88;;;10.80;99.90;;;;;;5013643;28;20018;-71
2022/09/27 01:25:04;;;;;;;2.03;0.60;;;10.50;99.90;;;;;;5013877;28;20438;-71
2022/09/27 01:27:40;;;;;;;3.00;0.63;;;10.40;99.90;;;;;;5013863;28;20124;-71
2022/09/27 01:30:24;;;;;;;8.45;0.88;;;10.40;99.90;;;;;;5013431;28;20475;-72
2022/09/27 01:33:01;;;;;;;4.00;0.60;;;10.40;99.90;;;;;;5013757;28;20125;-72
2022/09/27 01:35:51;;;;;;;4.22;0.70;;;10.30;99.90;;;;;;5013621;28;20038;-71
2022/09/27 01:38:27;;;;;;;4.03;0.75;;;10.40;99.90;;;;;;5013593;28;20030;-71
2022/09/27 01:40:57;;;;;;;3.20;0.50;;;10.20;99.90;;;;;;5013641;28;20033;-69
2022/09/27 01:43:36;;;;;;;4.72;1.17;;;10.10;99.90;;;;;;5014886;28;20119;-71
2022/09/27 01:46:16;;;;;;;7.72;0.70;;;10.10;99.90;;;;;;5013412;28;20089;-71
2022/09/27 01:49:09;;;;;;;3.30;0.57;;;10.00;99.90;;;;;;5013814;28;20030;-69
2022/09/27 01:51:57;;;;;;;3.85;0.80;;;10.00;99.90;;;;;;5013549;28;20033;-70
2022/09/27 01:54:38;;;;;;;1.83;0.60;;;10.00;99.90;;;;;;5013075;28;20073;-72
2022/09/27 01:57:30;;;;;;;4.97;0.50;;;9.80;99.90;;;;;;5013340;28;20029;-69
2022/09/27 02:00:02;;;;;;;2.55;0.57;;;9.90;99.90;;;;;;5013062;28;20033;-71
2022/09/27 02:02:50;;;;;;;3.45;0.70;;;9.80;99.90;;;;;;5013128;28;20026;-71
2022/09/27 02:05:29;;;;;;;3.65;0.70;;;9.80;99.90;;;;;;5014254;28;20497;-72
2022/09/27 02:08:07;;;;;;;2.08;0.40;;;9.70;99.90;;;;;;5013303;28;20426;-72
2022/09/27 02:10:38;;;;;;;4.55;0.63;;;9.70;99.90;;;;;;5012972;28;20030;-72
2022/09/27 02:13:39;;;;;;;5.57;0.57;;;9.70;99.90;;;;;;5012831;28;20049;-71
2022/09/27 02:16:53;;;;;;;6.00;0.68;;;9.80;99.90;;;;;;4994327;28;20050;-71
2022/09/27 02:20:00;;;;;;;3.97;0.73;;;9.70;99.90;;;;;;5013937;28;20482;-70
2022/09/27 02:22:46;;;;;;;2.42;0.77;;;9.80;99.90;;;;;;5012852;28;20026;-71
2022/09/27 02:25:27;;;;;;;5.75;1.23;;;9.90;99.90;;;;;;5012434;28;20034;-72
2022/09/27 02:28:03;;;;;;;5.93;0.98;;;10.00;99.90;;;;;;5012824;28;20568;-72
2022/09/27 02:30:33;;;;;;;3.75;0.55;;;10.20;99.90;;;;;;4996732;28;20027;-72
2022/09/27 02:33:12;;;;;;;3.72;0.70;;;10.40;99.90;;;;;;5009661;28;20035;-72
2022/09/27 02:35:38;;;;;;;5.47;0.90;;;10.30;99.90;;;;;;5012259;28;20052;-72
2022/09/27 02:38:05;;;;;;;3.58;1.30;;;10.30;99.90;;;;;;5012568;28;20018;-72
2022/09/27 02:40:36;;;;;;;5.15;0.93;;;10.50;99.90;;;;;;5012393;28;20060;-72
2022/09/27 02:43:04;;;;;;;3.47;1.10;;;10.60;99.90;;;;;;5012337;28;20025;-72
2022/09/27 02:45:54;;;;;;;3.88;1.13;;;10.70;99.90;;;;;;5012126;28;20038;-71
2022/09/27 02:48:35;;;;;;;3.92;0.93;;;10.60;99.90;;;;;;4998950;28;20029;-72
2022/09/27 02:51:32;;;;;;;13.27;1.10;;;10.90;99.90;;;;;;4997049;28;20065;-72
2022/09/27 02:54:19;;;;;;;5.53;0.77;;;10.40;99.90;;;;;;5010489;28;20035;-72
2022/09/27 02:57:09;;;;;;;5.35;0.85;;;10.30;99.90;;;;;;5013632;28;20045;-72
2022/09/27 03:00:06;;;;;;;2.78;0.60;;;10.20;99.90;;;;;;5013637;28;20449;-72
2022/09/27 03:03:12;;;;;;;5.45;0.98;;;9.90;99.90;;;;;;5012344;28;20499;-72
2022/09/27 03:05:59;;;;;;;3.63;1.02;;;9.80;99.90;;;;;;5011884;28;20037;-72
2022/09/27 03:08:25;;;;;;;4.75;0.80;;;9.80;99.90;;;;;;5012108;28;20116;-72
2022/09/27 03:10:51;;;;;;;4.30;0.82;;;9.80;99.90;;;;;;5011905;28;20025;-72
2022/09/27 03:13:17;;;;;;;2.15;0.60;;;10.00;99.90;;;;;;5012242;28;20116;-72
2022/09/27 03:15:45;;;;;;;3.00;1.00;;;10.00;99.90;;;;;;4995277;28;20029;-72
2022/09/27 03:18:49;;;;;;;0.88;0.50;;;9.80;99.90;;;;;;5000988;28;20034;-72
2022/09/27 03:21:40;;;;;;;8.15;0.80;;;9.60;99.90;;;;;;5012735;28;20038;-72
2022/09/27 03:24:07;;;;;;;4.88;1.25;;;9.60;99.90;;;;;;5012190;28;20029;-72
2022/09/27 03:26:34;;;;;;;3.78;1.00;;;9.60;99.90;;;;;;4995295;28;20068;-72
2022/09/27 03:29:00;;;;;;;3.58;0.88;;;9.80;99.90;;;;;;5011507;28;20053;-71
2022/09/27 03:31:26;;;;;;;6.60;0.85;;;10.10;99.90;;;;;;5011439;28;20026;-72
2022/09/27 03:34:15;;;;;;;2.67;0.75;;;10.30;99.90;;;;;;5007560;28;20038;-72
2022/09/27 03:36:41;;;;;;;2.67;0.70;;;10.60;99.90;;;;;;5011470;28;20076;-72
2022/09/27 03:39:07;;;;;;;4.22;0.80;;;10.70;99.90;;;;;;5012006;28;20026;-72
2022/09/27 03:41:33;;;;;;;3.50;1.08;;;10.60;99.90;;;;;;5012882;28;20029;-72
2022/09/27 03:43:59;;;;;;;4.57;1.40;;;10.70;99.90;;;;;;5012262;28;20026;-72
2022/09/27 03:46:25;;;;;;;7.15;1.00;;;10.80;99.90;;;;;;5015546;28;20088;-72
2022/09/27 03:48:51;;;;;;;3.65;0.80;;;10.80;99.90;;;;;;5015609;28;20014;-72
2022/09/27 03:51:17;;;;;;;14.65;4.00;;;10.50;99.90;;;;;;5015582;28;20034;-72
2022/09/27 03:53:43;;;;;;;5.03;1.10;;;10.40;99.90;;;;;;5015514;28;20541;-72
2022/09/27 03:56:10;;;;;;;3.55;0.80;;;10.60;99.90;;;;;;5015617;28;20029;-72
2022/09/27 03:58:35;;;;;;;3.63;1.00;;;10.50;99.90;;;;;;5014934;28;20417;-72
2022/09/27 04:01:02;;;;;;;8.60;1.25;;;10.50;99.90;;;;;;5015469;28;20060;-72
2022/09/27 04:03:29;;;;;;;4.72;1.30;;;10.50;99.90;;;;;;5015364;28;20026;-72
2022/09/27 04:06:23;;;;;;;4.50;1.05;;;10.50;99.90;;;;;;5004045;28;20083;-72
2022/09/27 04:08:49;;;;;;;5.53;1.10;;;10.40;99.90;;;;;;5015240;28;20034;-72
2022/09/27 04:11:16;;;;;;;3.60;0.95;;;10.20;99.90;;;;;;5015120;28;20034;-71
2022/09/27 04:13:47;;;;;;;5.30;1.23;;;10.40;99.90;;;;;;5014970;28;20546;-72
2022/09/27 04:16:15;;;;;;;3.20;0.80;;;10.30;99.90;;;;;;5014848;28;20022;-71
2022/09/27 04:19:00;;;;;;;2.20;0.70;;;10.20;99.90;;;;;;5016626;28;20037;-71
2022/09/27 04:21:44;;;;;;;3.85;1.33;;;10.30;99.90;;;;;;5014919;28;20037;-72
2022/09/27 04:24:12;;;;;;;2.33;0.60;;;10.20;99.90;;;;;;4999131;28;20029;-72
2022/09/27 04:26:43;;;;;;;1.80;0.80;;;10.10;99.90;;;;;;5014683;28;20076;-72
2022/09/27 04:29:11;;;;;;;4.13;0.70;;;10.10;99.90;;;;;;5014663;28;20022;-73
2022/09/27 04:31:43;;;;;;;5.03;1.40;;;10.40;99.90;;;;;;5014615;28;20030;-72
2022/09/27 04:34:12;;;;;;;5.95;1.20;;;10.40;99.90;;;;;;5016470;28;20052;-73
2022/09/27 04:36:37;;;;;;;3.50;1.00;;;10.60;99.90;;;;;;5014527;28;20018;-72
2022/09/27 04:39:09;;;;;;;4.90;1.63;;;10.40;99.90;;;;;;5014838;28;20048;-72
2022/09/27 04:41:38;;;;;;;4.93;1.20;;;10.40;99.90;;;;;;5014073;28;20482;-72
2022/09/27 04:44:05;;;;;;;6.20;1.77;;;10.30;99.90;;;;;;5014708;28;20033;-72
2022/09/27 04:46:31;;;;;;;4.82;1.52;;;10.30;99.90;;;;;;5014573;28;20406;-71
2022/09/27 04:48:59;;;;;;;8.68;2.17;;;10.30;99.90;;;;;;5014248;28;20037;-72
2022/09/27 04:51:26;;;;;;;7.97;1.92;;;10.30;99.90;;;;;;5014497;28;20028;-72
2022/09/27 04:53:52;;;;;;;5.07;2.13;;;10.20;99.90;;;;;;5014138;28;20084;-72
2022/09/27 04:56:19;;;;;;;11.93;1.92;;;10.20;99.90;;;;;;5013331;28;20026;-71
2022/09/27 04:58:45;;;;;;;9.68;2.40;;;10.00;99.90;;;;;;5014069;28;20046;-72
2022/09/27 05:01:12;;;;;;;4.78;2.30;;;10.10;99.90;;;;;;5014428;28;20498;-72
2022/09/27 05:03:44;;;;;;;;;;;10.10;99.90;;;;;;5014919;28;20590;-72
2022/09/27 05:06:12;;;;;;;8.50;3.55;;;10.00;99.90;;;;;;5015558;28;19917;-72
2022/09/27 05:08:38;;;;;;;9.63;4.38;;;10.00;99.90;;;;;;5014098;28;20085;-72
2022/09/27 05:11:22;;;;;;;10.93;4.28;;;10.10;99.90;;;;;;5015268;28;20121;-73
2022/09/27 05:14:14;;;;;;;;;;;10.20;99.90;;;;;;4990448;28;20029;-72
2022/09/27 05:17:03;;;;;;;11.50;4.88;;;10.30;99.90;;;;;;5007306;28;19909;-73
2022/09/27 05:20:05;;;;;;;8.90;5.43;;;10.10;99.90;;;;;;4995542;28;20050;-73
2022/09/27 05:22:38;;;;;;;;;;;9.90;99.90;;;;;;5014029;28;20030;-72
2022/09/27 05:25:04;;;;;;;15.55;6.00;;;9.90;99.90;;;;;;5013296;28;19913;-72
2022/09/27 05:27:30;;;;;;;14.10;6.22;;;9.80;99.90;;;;;;5015140;28;20034;-71
2022/09/27 05:29:56;;;;;;;9.10;6.10;;;9.80;99.90;;;;;;4996901;28;20033;-71
2022/09/27 05:32:28;;;;;;;9.70;6.00;;;9.80;99.90;;;;;;5014977;28;20390;-72
2022/09/27 05:35:32;;;;;;;10.73;6.50;;;9.90;99.90;;;;;;5001572;28;20598;-72
2022/09/27 05:37:59;;;;;;;9.82;6.40;;;9.90;99.90;;;;;;5014598;28;20549;-72
2022/09/27 05:40:29;;;;;;;13.25;6.35;;;10.00;99.90;;;;;;5013222;28;20018;-72
2022/09/27 05:42:55;;;;;;;14.68;5.90;;;9.90;99.90;;;;;;5013413;28;20034;-72
2022/09/27 05:45:24;;;;;;;10.35;7.03;;;9.90;99.90;;;;;;5013174;28;20565;-72
2022/09/27 05:47:57;;;;;;;11.98;6.75;;;10.00;99.90;;;;;;5013584;28;20425;-72
2022/09/27 05:50:25;;;;;;;17.10;6.70;;;9.90;99.90;;;;;;5009924;28;20408;-66
2022/09/27 05:52:52;;;;;;;13.32;6.32;;;9.80;99.90;;;;;;5016573;28;20029;-72
2022/09/27 05:55:19;;;;;;;19.88;5.85;;;9.80;99.90;;;;;;5012331;28;20026;-71
2022/09/27 05:58:00;;;;;;;14.85;6.72;;;9.60;99.90;;;;;;5024874;28;20052;-72
2022/09/27 06:00:46;;;;;;;17.98;6.20;;;9.60;99.90;;;;;;5015752;28;20037;-72
2022/09/27 06:03:38;;;;;;;14.20;5.45;;;9.70;99.90;;;;;;5017778;28;20045;-72
2022/09/27 06:06:16;;;;;;;14.30;5.53;;;9.60;99.90;;;;;;5003945;28;20072;-72
2022/09/27 06:08:48;;;;;;;10.90;5.80;;;9.60;99.90;;;;;;5018575;28;20457;-72
2022/09/27 06:11:17;;;;;;;16.58;5.78;;;9.70;99.90;;;;;;5011842;28;20037;-73
2022/09/27 06:13:43;;;;;;;16.25;5.70;;;9.70;99.90;;;;;;5012710;28;20513;-72
2022/09/27 06:16:11;;;;;;;13.10;6.60;;;9.80;99.90;;;;;;5013433;28;20018;-73
2022/09/27 06:18:39;;;;;;;10.60;5.63;;;9.80;99.90;;;;;;5017371;28;20053;-72
2022/09/27 06:21:05;;;;;;;10.85;5.25;;;9.90;99.90;;;;;;5000804;28;20053;-72
2022/09/27 06:23:33;;;;;;;11.77;5.70;;;9.60;99.90;;;;;;5013357;28;20021;-72
2022/09/27 06:26:06;;;;;;;9.63;5.55;;;9.60;99.90;;;;;;5018007;28;20565;-72
2022/09/27 06:28:50;;;;;;;13.02;5.32;;;9.60;99.90;;;;;;5016490;28;20026;-72
2022/09/27 06:31:16;;;;;;;12.10;5.32;;;9.50;99.90;;;;;;5014661;28;20625;-72
2022/09/27 06:34:00;;;;;;;18.80;5.60;;;9.60;99.90;;;;;;5014945;28;20040;-71
2022/09/27 06:36:27;;;;;;;7.60;4.88;;;9.70;99.90;;;;;;5020453;28;20108;-68
2022/09/27 06:38:53;;;;;;;10.27;4.78;;;9.70;99.90;;;;;;5018351;28;20518;-72
2022/09/27 06:41:22;;;;;;;11.55;4.72;;;9.70;99.90;;;;;;5016654;28;20026;-72
2022/09/27 06:44:24;;;;;;;12.40;4.65;;;9.60;99.90;;;;;;5000528;28;20050;-72
2022/09/27 06:47:34;;;;;;;11.38;5.47;;;9.80;99.90;;;;;;4973359;28;20042;-68
2022/09/27 06:50:18;;;;;;;9.23;4.70;;;10.00;99.90;;;;;;4975449;28;20462;-72
2022/09/27 06:52:48;;;;;;;11.10;4.80;;;10.30;99.90;;;;;;4991527;28;20548;-72
2022/09/27 06:55:15;;;;;;;24.77;5.40;;;10.30;99.90;;;;;;5006472;28;20029;-72
2022/09/27 07:00:25;;;;;;;15.98;6.03;;;10.20;99.90;;;;;;5020315;28;20038;-74
2022/09/27 07:03:18;;;;;;;10.80;4.55;;;10.20;99.90;;;;;;5014310;28;20042;-72
2022/09/27 07:06:21;;;;;;;9.98;4.43;;;10.10;99.90;;;;;;4999487;28;20133;-73
2022/09/27 07:08:52;;;;;;;15.45;4.65;;;10.40;99.90;;;;;;5012773;28;20088;-72
2022/09/27 07:11:20;;;;;;;15.27;5.40;;;10.10;99.90;;;;;;5020575;28;20033;-71
2022/09/27 07:13:46;;;;;;;10.70;4.78;;;10.30;99.90;;;;;;5015683;28;20018;-71
2022/09/27 07:16:13;;;;;;;11.57;4.97;;;10.20;99.90;;;;;;5012600;28;20386;-68
2022/09/27 07:18:41;;;;;;;14.98;5.63;;;10.10;99.90;;;;;;5011472;28;20022;-73
2022/09/27 07:21:08;;;;;;;10.35;5.60;;;10.30;99.90;;;;;;5010056;28;20025;-72
2022/09/27 07:23:35;;;;;;;7.28;4.55;;;10.40;99.90;;;;;;5011767;28;20017;-72
2022/09/27 07:26:03;;;;;;;9.93;5.00;;;10.40;99.90;;;;;;5011474;28;20037;-72
2022/09/27 07:28:29;;;;;;;17.17;4.53;;;10.30;99.90;;;;;;5013040;28;20025;-73
2022/09/27 07:30:56;;;;;;;11.80;5.47;;;10.20;99.90;;;;;;5011491;28;20038;-72
2022/09/27 07:33:22;;;;;;;10.82;4.65;;;10.30;99.90;;;;;;5011634;28;20389;-72
2022/09/27 07:35:48;;;;;;;12.25;4.15;;;10.40;99.90;;;;;;5011997;28;20444;-73
2022/09/27 07:38:15;;;;;;;8.57;4.32;;;10.20;99.90;;;;;;5011663;28;20546;-73
2022/09/27 07:40:41;;;;;;;9.65;4.15;;;10.00;99.90;;;;;;5011454;28;20061;-73
2022/09/27 07:43:08;;;;;;;15.80;5.80;;;9.90;99.90;;;;;;4995545;28;20033;-72
2022/09/27 07:45:35;;;;;;;17.92;5.60;;;9.90;99.90;;;;;;5011328;28;20026;-72
2022/09/27 07:48:27;;;;;;;14.95;5.35;;;10.00;99.90;;;;;;4985639;28;20042;-72
2022/09/27 07:51:10;;;;;;;15.25;6.03;;;9.90;99.90;;;;;;5011011;28;20109;-73
2022/09/27 07:53:49;;;;;;;10.88;6.40;;;9.80;99.90;;;;;;5011447;28;20529;-73
2022/09/27 07:56:46;;;;;;;13.60;6.53;;;9.70;99.90;;;;;;5011428;28;20483;-72
2022/09/27 07:59:15;;;;;;;8.18;5.55;;;9.90;99.90;;;;;;5011384;28;20030;-73
2022/09/27 08:01:40;;;;;;;10.95;5.07;;;9.90;99.90;;;;;;5012526;28;20026;-73
2022/09/27 08:04:06;;;;;;;11.52;5.47;;;9.90;99.90;;;;;;5012527;28;20030;-73
2022/09/27 08:06:32;;;;;;;8.23;4.78;;;9.90;99.90;;;;;;5011026;28;20121;-73
2022/09/27 08:08:58;;;;;;;11.68;4.45;;;9.90;99.90;;;;;;5012677;28;20118;-72
2022/09/27 08:11:26;;;;;;;7.32;4.70;;;9.80;99.90;;;;;;5011407;28;20113;-73
2022/09/27 08:13:52;;;;;;;11.02;4.47;;;9.90;99.90;;;;;;5011372;28;20112;-73
2022/09/27 08:16:21;;;;;;;11.98;4.45;;;10.10;99.90;;;;;;5011305;28;20061;-73
2022/09/27 08:19:25;;;;;;;10.68;5.07;;;10.10;99.90;;;;;;4971115;28;20113;-73
2022/09/27 08:22:12;;;;;;;12.38;4.68;;;10.00;99.90;;;;;;4971564;28;20042;-73
2022/09/27 08:25:01;;;;;;;8.27;4.88;;;10.10;99.90;;;;;;4991150;28;20030;-73
2022/09/27 08:27:40;;;;;;;6.00;4.45;;;10.50;99.90;;;;;;5012473;28;20185;-73
2022/09/27 08:30:30;;;;;;;8.55;4.28;;;10.60;99.90;;;;;;4997976;28;20033;-73
2022/09/27 08:32:57;;;;;;;6.03;4.28;;;10.70;99.90;;;;;;5014666;28;20040;-73
2022/09/27 08:35:23;;;;;;;7.20;3.70;;;10.60;99.90;;;;;;5014389;28;20022;-73
2022/09/27 08:37:58;;;;;;;6.80;3.97;;;10.70;99.90;;;;;;5015862;28;20489;-73
2022/09/27 08:40:47;;;;;;;11.10;4.15;;;10.40;99.90;;;;;;5014632;28;20115;-73
2022/09/27 08:43:22;;;;;;;6.78;3.38;;;10.40;99.90;;;;;;5014696;28;20061;-73
2022/09/27 08:45:53;;;;;;;7.70;4.32;;;10.40;99.90;;;;;;5013954;28;20092;-73
2022/09/27 08:48:20;;;;;;;7.72;4.68;;;10.60;99.90;;;;;;5014090;28;20058;-73
2022/09/27 08:50:48;;;;;;;7.72;4.18;;;10.40;99.90;;;;;;5014349;28;20025;-70
2022/09/27 08:53:25;;;;;;;10.15;4.25;;;10.40;99.90;;;;;;5014526;28;20371;-73
2022/09/27 08:55:55;;;;;;;11.95;5.60;;;10.50;99.90;;;;;;5014064;28;20025;-73
2022/09/27 08:58:46;;;;;;;10.05;4.70;;;10.60;99.90;;;;;;5014493;28;20061;-73
2022/09/27 09:01:29;;;;;;;7.32;4.43;;;10.70;99.90;;;;;;5014554;28;20120;-73
2022/09/27 09:04:04;;;;;;;7.85;4.60;;;10.60;99.90;;;;;;4998609;28;20052;-73
2022/09/27 09:06:48;;;;;;;11.75;4.70;;;10.50;99.90;;;;;;5014155;28;20097;-73
2022/09/27 09:09:13;;;;;;;14.57;4.70;;;10.60;99.90;;;;;;5014122;28;20025;-73
2022/09/27 09:15:32;;;;;;;8.82;4.57;;;10.90;99.90;;;;;;5003492;28;20029;-73
2022/09/27 09:18:21;;;;;;;10.05;3.88;;;11.00;99.90;;;;;;4999896;28;20034;-73
2022/09/27 09:21:26;;;;;;;8.43;4.47;;;10.80;99.90;;;;;;5013789;28;20041;-73
2022/09/27 09:24:15;;;;;;;12.82;4.22;;;10.90;99.90;;;;;;4999324;28;20022;-73
2022/09/27 09:27:02;;;;;;;11.43;3.90;;;11.40;99.90;;;;;;5012602;28;20042;-73
2022/09/27 09:29:37;;;;;;;10.25;3.50;;;11.70;99.90;;;;;;5013521;28;20109;-73
2022/09/27 09:32:21;;;;;;;6.95;3.58;;;11.70;99.90;;;;;;5013478;28;20406;-73
2022/09/27 09:34:55;;;;;;;13.85;3.38;;;11.70;99.90;;;;;;5013241;28;20026;-72
2022/09/27 09:37:36;;;;;;;8.73;3.30;;;11.70;99.90;;;;;;5013843;28;20034;-73
2022/09/27 09:40:18;;;;;;;10.20;3.53;;;12.00;99.90;;;;;;5013170;28;20033;-73
2022/09/27 09:42:47;;;;;;;;;;;12.40;99.90;;;;;;5013980;28;20036;-73
2022/09/27 09:45:40;;;;;;;13.68;3.38;;;12.50;99.90;;;;;;5013187;28;19964;-73
2022/09/27 09:48:17;;;;;;;10.98;3.45;;;12.70;99.90;;;;;;4993605;28;20026;-73
2022/09/27 09:50:50;;;;;;;11.68;3.67;;;13.00;99.90;;;;;;5012810;28;20037;-73
2022/09/27 09:53:35;;;;;;;12.15;3.50;;;13.10;99.90;;;;;;5013366;28;20030;-73
2022/09/27 09:56:14;;;;;;;7.50;3.00;;;13.20;99.90;;;;;;5000557;28;20390;-73
2022/09/27 09:58:54;;;;;;;11.55;3.17;;;13.20;99.90;;;;;;5012859;28;20034;-72
2022/09/27 10:01:45;;;;;;;9.85;3.00;;;13.30;99.90;;;;;;5013028;28;20510;-73
2022/09/27 10:04:19;;;;;;;10.35;3.50;;;13.00;99.90;;;;;;5012953;28;20121;-73
2022/09/27 10:06:46;;;;;;;11.00;4.03;;;12.40;99.90;;;;;;5013008;28;20088;-73
2022/09/27 10:09:15;;;;;;;13.90;3.75;;;13.00;99.90;;;;;;5012668;28;20025;-72
2022/09/27 10:11:47;;;;;;;13.75;4.28;;;12.80;99.90;;;;;;5013017;28;20026;-72
2022/09/27 10:14:28;;;;;;;14.27;3.80;;;13.00;99.90;;;;;;5012747;28;20025;-73
2022/09/27 10:17:04;;;;;;;11.02;3.40;;;13.00;99.90;;;;;;5012519;28;20045;-73
2022/09/27 10:19:33;;;;;;;16.77;3.25;;;13.10;99.90;;;;;;5012643;28;20022;-73
2022/09/27 10:22:15;;;;;;;13.27;3.53;;;13.10;99.90;;;;;;5012866;28;20052;-73
2022/09/27 10:24:56;;;;;;;14.88;3.08;;;13.10;99.90;;;;;;5012578;28;20064;-72
2022/09/27 10:27:45;;;;;;;12.20;2.40;;;13.20;99.90;;;;;;5012992;28;20045;-73
2022/09/27 10:30:34;;;;;;;12.55;2.60;;;13.30;99.90;;;;;;5011896;28;20429;-72
2022/09/27 10:33:18;;;;;;;13.82;2.10;;;13.80;99.90;;;;;;5012525;28;20048;-72
2022/09/27 10:35:49;;;;;;;12.45;2.47;;;13.70;99.90;;;;;;5012575;28;20029;-71
2022/09/27 10:38:35;;;;;;;10.05;1.98;;;13.70;99.90;;;;;;5013299;28;20029;-71
2022/09/27 10:41:32;;;;;;;7.80;1.85;;;14.00;99.90;;;;;;5012140;28;20482;-71
2022/09/27 10:44:15;;;;;;;8.75;1.15;;;14.20;99.90;;;;;;5007086;28;20091;-71
2022/09/27 10:46:44;;;;;;;7.43;1.45;;;14.10;99.90;;;;;;5012231;28;20665;-72
2022/09/27 10:49:32;;;;;;;9.85;1.77;;;13.90;99.90;;;;;;4999000;28;20022;-72
2022/09/27 10:52:25;;;;;;;12.10;1.52;;;13.80;99.90;;;;;;5012031;28;20426;-72
2022/09/27 10:55:13;;;;;;;10.52;1.55;;;14.00;99.90;;;;;;5011044;28;20042;-72
2022/09/27 10:57:39;;;;;;;5.30;1.30;;;14.10;99.90;;;;;;5012359;28;20402;-72
2022/09/27 11:00:24;;;;;;;12.40;1.38;;;14.40;99.90;;;;;;5011717;28;20026;-71
2022/09/27 11:02:53;;;;;;;6.15;1.70;;;15.00;99.90;;;;;;4999474;28;20037;-72
2022/09/27 11:05:22;;;;;;;12.48;1.55;;;15.40;99.90;;;;;;5011817;28;20025;-72
2022/09/27 11:07:51;;;;;;;6.32;1.40;;;15.20;99.90;;;;;;4994862;28;20031;-72
2022/09/27 11:10:33;;;;;;;4.75;1.58;;;15.00;99.90;;;;;;5004845;28;20552;-72
2022/09/27 11:13:19;;;;;;;5.40;1.30;;;14.50;99.90;;;;;;5011613;28;20403;-71
2022/09/27 11:16:11;;;;;;;7.32;2.25;;;14.10;99.90;;;;;;5011419;28;20030;-72
2022/09/27 11:19:00;;;;;;;14.25;2.33;;;14.20;99.90;;;;;;5011880;28;20421;-72
2022/09/27 11:22:00;;;;;;;13.27;1.80;;;15.00;99.90;;;;;;4998238;28;20172;-72
2022/09/27 11:24:38;;;;;;;12.02;2.40;;;15.80;99.90;;;;;;5011694;28;20120;-72
2022/09/27 11:27:43;;;;;;;6.63;1.63;;;16.20;99.90;;;;;;4995523;28;20048;-72
2022/09/27 11:30:15;;;;;;;13.55;1.40;;;16.00;99.90;;;;;;5009761;28;20061;-72
2022/09/27 11:33:33;;;;;;;6.85;1.73;;;15.20;99.90;;;;;;4997322;28;20129;-72
2022/09/27 11:36:29;;;;;;;6.00;1.10;;;13.90;99.90;;;;;;4962068;28;20069;-72
2022/09/27 11:39:29;;;;;;;9.15;1.17;;;12.60;99.90;;;;;;4998290;28;20018;-72
2022/09/27 11:42:24;;;;;;;5.50;0.95;;;11.60;99.90;;;;;;4997435;28;20026;-72
2022/09/27 11:45:12;;;;;;;4.97;1.20;;;11.40;99.90;;;;;;4985366;28;20038;-71
2022/09/27 11:48:07;;;;;;;3.28;0.90;;;11.30;99.90;;;;;;5011417;28;20038;-71
2022/09/27 11:50:57;;;;;;;4.03;1.00;;;11.20;99.90;;;;;;5011480;28;20022;-72
2022/09/27 11:53:47;;;;;;;1.77;0.68;;;11.30;99.90;;;;;;5011539;28;20030;-72
2022/09/27 11:56:24;;;;;;;6.15;1.17;;;11.80;99.90;;;;;;4980804;28;20032;-72
2022/09/27 11:59:15;;;;;;;4.13;1.20;;;13.50;99.90;;;;;;5008699;28;20467;-71
2022/09/27 12:01:53;;;;;;;10.30;1.90;;;14.60;99.90;;;;;;5011453;28;20026;-71
2022/09/27 12:04:45;;;;;;;11.10;2.58;;;15.10;99.90;;;;;;5011295;28;20441;-72
2022/09/27 12:07:34;;;;;;;8.32;1.70;;;15.00;99.90;;;;;;4997598;28;20399;-72
2022/09/27 12:10:09;;;;;;;8.18;1.52;;;14.80;99.90;;;;;;5015349;28;20025;-72
2022/09/27 12:12:40;;;;;;;7.20;1.85;;;15.20;99.90;;;;;;5014816;28;20033;-72
2022/09/27 12:15:23;;;;;;;9.40;2.00;;;15.50;99.90;;;;;;5015211;28;20038;-71
2022/09/27 12:17:54;;;;;;;3.83;1.30;;;15.90;99.90;;;;;;5014785;28;20022;-72
2022/09/27 12:20:26;;;;;;;6.05;1.50;;;15.50;99.90;;;;;;5015135;28;20022;-72
2022/09/27 12:23:28;;;;;;;7.85;1.50;;;15.40;99.90;;;;;;5016228;28;20030;-71
2022/09/27 12:26:11;;;;;;;5.80;1.70;;;16.40;99.90;;;;;;4978133;28;20049;-71
2022/09/27 12:29:01;;;;;;;6.30;1.45;;;16.20;99.90;;;;;;4998826;28;20022;-72
2022/09/27 12:31:36;;;;;;;7.47;1.90;;;15.30;99.90;;;;;;5014550;28;20045;-71
2022/09/27 12:34:15;;;;;;;8.25;2.35;;;15.00;99.90;;;;;;5014926;28;20030;-71
2022/09/27 12:36:46;;;;;;;10.70;1.60;;;14.70;99.90;;;;;;5016039;28;20034;-72
2022/09/27 12:39:20;;;;;;;7.85;1.88;;;15.60;99.90;;;;;;5014278;28;20033;-73
2022/09/27 12:42:04;;;;;;;7.55;1.50;;;16.10;99.90;;;;;;5013835;28;20030;-72
2022/09/27 12:44:44;;;;;;;7.93;1.45;;;15.80;99.90;;;;;;5014864;28;20490;-72
2022/09/27 12:47:22;;;;;;;10.45;1.52;;;14.90;99.90;;;;;;5000523;28;20391;-71
2022/09/27 12:50:19;;;;;;;6.63;1.67;;;14.60;99.90;;;;;;5012672;28;20021;-73
2022/09/27 12:52:51;;;;;;;7.50;1.90;;;14.50;99.90;;;;;;5012633;28;20021;-73
2022/09/27 12:55:47;;;;;;;9.27;1.70;;;14.50;99.90;;;;;;5015749;28;20432;-73
2022/09/27 12:58:45;;;;;;;10.95;2.47;;;14.40;99.90;;;;;;5009993;28;20047;-71
2022/09/27 13:01:43;;;;;;;12.32;1.90;;;14.10;99.90;;;;;;5012149;28;20079;-74
2022/09/27 13:04:17;;;;;;;9.93;2.03;;;14.00;99.90;;;;;;5021509;28;20033;-75
2022/09/27 13:07:10;;;;;;;14.35;2.33;;;14.30;99.90;;;;;;5025075;28;20124;-74
2022/09/27 13:09:53;;;;;;;8.35;1.50;;;14.00;99.90;;;;;;5010800;28;20033;-75
2022/09/27 13:12:23;;;;;;;8.60;1.70;;;13.40;99.90;;;;;;4994261;28;20026;-74
2022/09/27 13:15:16;;;;;;;5.00;1.35;;;12.60;99.90;;;;;;5013715;28;20057;-74
2022/09/27 13:17:43;;;;;;;8.50;1.85;;;12.30;99.90;;;;;;5010655;28;20402;-75
2022/09/27 13:20:37;;;;;;;7.85;1.70;;;12.50;99.90;;;;;;5014183;28;20022;-74
2022/09/27 13:23:17;;;;;;;8.50;2.00;;;12.60;99.90;;;;;;5026542;28;20022;-76
2022/09/27 13:26:02;;;;;;;5.63;1.40;;;13.00;99.90;;;;;;5022060;28;20509;-74
2022/09/27 13:28:53;;;;;;;8.15;1.40;;;13.50;99.90;;;;;;5021657;28;20033;-75
2022/09/27 13:31:51;;;;;;;7.00;2.22;;;13.70;99.90;;;;;;5014056;28;20037;-75
2022/09/27 13:34:36;;;;;;;13.35;2.08;;;13.90;99.90;;;;;;4999668;28;20522;-74
2022/09/27 13:37:36;;;;;;;11.43;1.52;;;14.50;99.90;;;;;;5009884;28;20451;-75
2022/09/27 13:40:23;;;;;;;6.32;1.52;;;14.60;99.90;;;;;;5012627;28;20423;-75
2022/09/27 13:43:08;;;;;;;16.98;2.55;;;14.40;99.90;;;;;;5012301;28;20034;-73
2022/09/27 13:45:42;;;;;;;13.23;2.13;;;14.40;99.90;;;;;;5014016;28;20380;-74